^^
Station Historical Data
Daily Summary for October 13, 2017 Units:  Both    English   Metric
« Previous Day
Next Day »
Daily Weekly Monthly Yearly Custom
  High: Low: Average:
Temperature: 66.4 °F /  19.1 °C 44.4 °F /  6.9 °C 55.9 °F /  13.3 °C
Dew Point: 57.4 °F /  14.1 °C 41.9 °F /  5.5 °C 49.8 °F /  9.9 °C
Humidity: 93% 62% 81%
Wind Speed: 3.0mph /  4.8km/h - 0.4mph /  0.6km/h
Wind Gust: 9.0mph /  14.5km/h - -
Wind- - WSW
Pressure: 30.48 in /  1032.1 hPa 30.34 in /  1027.3 hPa -
Precipitation: 0.00 in /  0 mm    
Historical Graphs
 
 
Tabular Data for October 13, 2017
Time Temperature Dew Point Pressure Wind Wind Speed Wind Gust Humidity Rainfall Rate (Hourly) Conditions
00:15 50.5 °F /  10.3 °C 42.9 °F /  6.1 °C 30.42in /  1030hPa Calm   6.0mph /  9.7km/h 75% 0.00in /  0mm RA
00:30 50.1 °F /  10.1 °C 42.8 °F /  6 °C 30.43in /  1030.4hPa Calm   6.0mph /  9.7km/h 76% 0.00in /  0mm CLR
00:45 49.7 °F /  9.8 °C 42.4 °F /  5.8 °C 30.43in /  1030.4hPa East 1.0mph /  1.6km/h 3.0mph /  4.8km/h 76% 0.00in /  0mm CLR
01:00 49.3 °F /  9.6 °C 42.4 °F /  5.8 °C 30.43in /  1030.4hPa Calm   2.0mph /  3.2km/h 77% 0.00in /  0mm CLR
02:15 47.9 °F /  8.8 °C 42.7 °F /  5.9 °C 30.44in /  1030.7hPa North 1.0mph /  1.6km/h 3.0mph /  4.8km/h 82% 0.00in /  0mm FEW
02:30 47.7 °F /  8.7 °C 42.8 °F /  6 °C 30.44in /  1030.7hPa Calm   3.0mph /  4.8km/h 83% 0.00in /  0mm FEW
02:45 47.5 °F /  8.6 °C 42.6 °F /  5.9 °C 30.44in /  1030.7hPa Calm   2.0mph /  3.2km/h 83% 0.00in /  0mm FEW
03:00 47.2 °F /  8.4 °C 42.6 °F /  5.9 °C 30.44in /  1030.7hPa Calm   4.0mph /  6.4km/h 84% 0.00in /  0mm FEW
03:15 46.7 °F /  8.2 °C 42.4 °F /  5.8 °C 30.44in /  1030.7hPa Calm     85% 0.00in /  0mm FEW
03:30 46.5 °F /  8.1 °C 42.5 °F /  5.8 °C 30.44in /  1030.7hPa Calm   1.0mph /  1.6km/h 86% 0.00in /  0mm FEW
03:45 46.1 °F /  7.8 °C 42.4 °F /  5.8 °C 30.44in /  1030.7hPa Calm     87% 0.00in /  0mm FEW
04:00 45.6 °F /  7.6 °C 42.2 °F /  5.7 °C 30.44in /  1030.7hPa Calm     88% 0.00in /  0mm FEW
04:15 45.3 °F /  7.4 °C 42.2 °F /  5.7 °C 30.45in /  1031hPa Calm     89% 0.00in /  0mm CLR
04:30 45.3 °F /  7.4 °C 42.6 °F /  5.9 °C 30.45in /  1031hPa Calm     90% 0.00in /  0mm CLR
04:45 45.6 °F /  7.6 °C 42.8 °F /  6 °C 30.45in /  1031hPa Calm     90% 0.00in /  0mm CLR
05:00 46.0 °F /  7.8 °C 43.2 °F /  6.2 °C 30.45in /  1031hPa Calm   1.0mph /  1.6km/h 90% 0.00in /  0mm CLR
05:15 46.5 °F /  8.1 °C 43.1 °F /  6.2 °C 30.44in /  1030.7hPa Calm   2.0mph /  3.2km/h 88% 0.00in /  0mm SCT
05:30 46.3 °F /  7.9 °C 42.9 °F /  6.1 °C 30.44in /  1030.7hPa Calm   2.0mph /  3.2km/h 88% 0.00in /  0mm SCT
05:45 46.0 °F /  7.8 °C 42.7 °F /  5.9 °C 30.44in /  1030.7hPa Calm   1.0mph /  1.6km/h 88% 0.00in /  0mm SCT
06:00 45.7 °F /  7.6 °C 42.6 °F /  5.9 °C 30.45in /  1031hPa Calm     89% 0.00in /  0mm SCT
06:15 44.9 °F /  7.2 °C 42.2 °F /  5.7 °C 30.45in /  1031hPa Calm     90% 0.00in /  0mm SCT
06:30 44.7 °F /  7.1 °C 42.2 °F /  5.7 °C 30.45in /  1031hPa Calm     91% 0.00in /  0mm SCT
06:45 44.4 °F /  6.9 °C 41.9 °F /  5.5 °C 30.45in /  1031hPa Calm     91% 0.00in /  0mm SCT
07:00 44.4 °F /  6.9 °C 42.2 °F /  5.7 °C 30.46in /  1031.4hPa Calm     92% 0.00in /  0mm SCT
07:15 44.4 °F /  6.9 °C 42.2 °F /  5.7 °C 30.46in /  1031.4hPa Calm     92% 0.00in /  0mm SCT
07:30 45.0 °F /  7.2 °C 43.1 °F /  6.2 °C 30.46in /  1031.4hPa Calm   1.0mph /  1.6km/h 93% 0.00in /  0mm SCT
07:45 46.1 °F /  7.8 °C 43.6 °F /  6.4 °C 30.47in /  1031.7hPa Calm   3.0mph /  4.8km/h 91% 0.00in /  0mm SCT
08:00 47.0 °F /  8.3 °C 43.9 °F /  6.6 °C 30.47in /  1031.7hPa Calm   3.0mph /  4.8km/h 89% 0.00in /  0mm SCT
08:15 47.7 °F /  8.7 °C 44.0 °F /  6.7 °C 30.47in /  1031.7hPa NW 2.0mph /  3.2km/h 3.0mph /  4.8km/h 87% 0.00in /  0mm SCT
08:30 48.3 °F /  9.1 °C 44.3 °F /  6.8 °C 30.47in /  1031.7hPa NNW 1.0mph /  1.6km/h 4.0mph /  6.4km/h 86% 0.00in /  0mm SCT
08:45 49.3 °F /  9.6 °C 44.9 °F /  7.2 °C 30.47in /  1031.7hPa North 1.0mph /  1.6km/h 3.0mph /  4.8km/h 85% 0.00in /  0mm SCT
09:00 50.2 °F /  10.1 °C 45.5 °F /  7.5 °C 30.47in /  1031.7hPa North 1.0mph /  1.6km/h 4.0mph /  6.4km/h 84% 0.00in /  0mm SCT
09:15 50.9 °F /  10.5 °C 45.9 °F /  7.7 °C 30.47in /  1031.7hPa Calm   3.0mph /  4.8km/h 83% 0.00in /  0mm BKN
09:30 51.7 °F /  10.9 °C 46.4 °F /  8 °C 30.47in /  1031.7hPa Calm   2.0mph /  3.2km/h 82% 0.00in /  0mm BKN
09:45 52.0 °F /  11.1 °C 46.0 °F /  7.8 °C 30.47in /  1031.7hPa WNW 1.0mph /  1.6km/h 3.0mph /  4.8km/h 80% 0.00in /  0mm BKN
10:00 52.6 °F /  11.4 °C 46.9 °F /  8.3 °C 30.47in /  1031.7hPa NW 1.0mph /  1.6km/h 3.0mph /  4.8km/h 81% 0.00in /  0mm BKN
10:15 54.4 °F /  12.4 °C 49.3 °F /  9.6 °C 30.47in /  1031.7hPa Calm   7.0mph /  11.3km/h 83% 0.00in /  0mm BKN
10:30 55.9 °F /  13.3 °C 50.1 °F /  10.1 °C 30.47in /  1031.7hPa Calm   4.0mph /  6.4km/h 81% 0.00in /  0mm BKN
10:45 56.3 °F /  13.5 °C 49.9 °F /  9.9 °C 30.48in /  1032.1hPa Calm   5.0mph /  8km/h 79% 0.00in /  0mm BKN
11:00 57.0 °F /  13.9 °C 50.2 °F /  10.1 °C 30.47in /  1031.7hPa Calm   5.0mph /  8km/h 78% 0.00in /  0mm BKN
11:15 57.6 °F /  14.2 °C 51.1 °F /  10.6 °C 30.47in /  1031.7hPa Calm   3.0mph /  4.8km/h 79% 0.00in /  0mm BKN
11:30 59.1 °F /  15.1 °C 51.2 °F /  10.7 °C 30.46in /  1031.4hPa SW 2.0mph /  3.2km/h 7.0mph /  11.3km/h 75% 0.00in /  0mm BKN
11:45 59.3 °F /  15.2 °C 51.0 °F /  10.6 °C 30.46in /  1031.4hPa WNW 1.0mph /  1.6km/h 8.0mph /  12.9km/h 74% 0.00in /  0mm BKN
12:00 59.2 °F /  15.1 °C 51.3 °F /  10.7 °C 30.45in /  1031hPa Calm   5.0mph /  8km/h 75% 0.00in /  0mm BKN
12:15 59.9 °F /  15.5 °C 51.9 °F /  11.1 °C 30.45in /  1031hPa NNW 2.0mph /  3.2km/h 7.0mph /  11.3km/h 75% 0.00in /  0mm BKN
12:30 60.4 °F /  15.8 °C 52.1 °F /  11.2 °C 30.44in /  1030.7hPa NW 1.0mph /  1.6km/h 8.0mph /  12.9km/h 74% 0.00in /  0mm BKN
12:45 60.9 °F /  16.1 °C 52.6 °F /  11.4 °C 30.43in /  1030.4hPa Calm   5.0mph /  8km/h 74% 0.00in /  0mm BKN
13:00 62.2 °F /  16.8 °C 53.1 °F /  11.7 °C 30.43in /  1030.4hPa NNW 2.0mph /  3.2km/h 8.0mph /  12.9km/h 72% 0.00in /  0mm BKN
13:15 63.3 °F /  17.4 °C 53.8 °F /  12.1 °C 30.42in /  1030hPa West 2.0mph /  3.2km/h 6.0mph /  9.7km/h 71% 0.00in /  0mm BKN
13:30 63.2 °F /  17.3 °C 53.3 °F /  11.8 °C 30.41in /  1029.7hPa WNW 1.0mph /  1.6km/h 7.0mph /  11.3km/h 70% 0.00in /  0mm BKN
13:45 64.7 °F /  18.2 °C 53.5 °F /  11.9 °C 30.41in /  1029.7hPa West 2.0mph /  3.2km/h 7.0mph /  11.3km/h 67% 0.00in /  0mm BKN
14:00 65.5 °F /  18.6 °C 53.4 °F /  11.9 °C 30.40in /  1029.3hPa SW 1.0mph /  1.6km/h 8.0mph /  12.9km/h 65% 0.00in /  0mm BKN
14:15 65.7 °F /  18.7 °C 53.2 °F /  11.8 °C 30.40in /  1029.3hPa North 2.0mph /  3.2km/h 7.0mph /  11.3km/h 64% 0.00in /  0mm SCT
14:30 65.7 °F /  18.7 °C 53.2 °F /  11.8 °C 30.39in /  1029hPa Calm   8.0mph /  12.9km/h 64% 0.00in /  0mm SCT
14:45 65.9 °F /  18.8 °C 53.4 °F /  11.9 °C 30.39in /  1029hPa WSW 1.0mph /  1.6km/h 9.0mph /  14.5km/h 64% 0.00in /  0mm SCT
15:00 66.4 °F /  19.1 °C 53.0 °F /  11.7 °C 30.38in /  1028.7hPa NNE 3.0mph /  4.8km/h 7.0mph /  11.3km/h 62% 0.00in /  0mm SCT
15:15 65.9 °F /  18.8 °C 53.0 °F /  11.7 °C 30.38in /  1028.7hPa WSW 2.0mph /  3.2km/h 7.0mph /  11.3km/h 63% 0.00in /  0mm SCT
15:30 66.2 °F /  19 °C 53.7 °F /  12.1 °C 30.38in /  1028.7hPa West 2.0mph /  3.2km/h 9.0mph /  14.5km/h 64% 0.00in /  0mm SCT
15:45 65.9 °F /  18.8 °C 53.4 °F /  11.9 °C 30.37in /  1028.3hPa Calm   6.0mph /  9.7km/h 64% 0.00in /  0mm SCT
16:00 65.6 °F /  18.7 °C 53.1 °F /  11.7 °C 30.37in /  1028.3hPa South 2.0mph /  3.2km/h 6.0mph /  9.7km/h 64% 0.00in /  0mm SCT
16:15 65.9 °F /  18.8 °C 53.8 °F /  12.1 °C 30.37in /  1028.3hPa Calm   7.0mph /  11.3km/h 65% 0.00in /  0mm FEW
16:30 66.0 °F /  18.9 °C 53.5 °F /  11.9 °C 30.36in /  1028hPa East 1.0mph /  1.6km/h 7.0mph /  11.3km/h 64% 0.00in /  0mm FEW
16:45 64.9 °F /  18.3 °C 54.1 °F /  12.3 °C 30.36in /  1028hPa Calm   4.0mph /  6.4km/h 68% 0.00in /  0mm FEW
17:00 63.4 °F /  17.4 °C 54.2 °F /  12.3 °C 30.36in /  1028hPa Calm   4.0mph /  6.4km/h 72% 0.00in /  0mm FEW
17:15 63.0 °F /  17.2 °C 54.6 °F /  12.6 °C 30.36in /  1028hPa Calm   5.0mph /  8km/h 74% 0.00in /  0mm BKN
17:30 62.5 °F /  16.9 °C 54.9 °F /  12.7 °C 30.36in /  1028hPa Calm   4.0mph /  6.4km/h 76% 0.00in /  0mm BKN
17:45 62.0 °F /  16.7 °C 55.1 °F /  12.8 °C 30.36in /  1028hPa Calm   3.0mph /  4.8km/h 78% 0.00in /  0mm BKN
18:00 61.7 °F /  16.5 °C 55.1 °F /  12.8 °C 30.37in /  1028.3hPa Calm   4.0mph /  6.4km/h 79% 0.00in /  0mm BKN
18:15 61.5 °F /  16.4 °C 55.6 °F /  13.1 °C 30.36in /  1028hPa Calm   2.0mph /  3.2km/h 81% 0.00in /  0mm BKN
18:30 61.3 °F /  16.3 °C 55.8 °F /  13.2 °C 30.36in /  1028hPa Calm   2.0mph /  3.2km/h 82% 0.00in /  0mm BKN
18:45 61.2 °F /  16.2 °C 56.0 °F /  13.3 °C 30.36in /  1028hPa Calm   3.0mph /  4.8km/h 83% 0.00in /  0mm BKN
19:00 61.1 °F /  16.2 °C 55.9 °F /  13.3 °C 30.36in /  1028hPa Calm   3.0mph /  4.8km/h 83% 0.00in /  0mm BKN
19:15 61.0 °F /  16.1 °C 56.2 °F /  13.4 °C 30.36in /  1028hPa Calm   3.0mph /  4.8km/h 84% 0.00in /  0mm OVC
19:30 61.1 °F /  16.2 °C 56.2 °F /  13.4 °C 30.36in /  1028hPa Calm   2.0mph /  3.2km/h 84% 0.00in /  0mm OVC
19:45 61.1 °F /  16.2 °C 56.6 °F /  13.7 °C 30.36in /  1028hPa Calm   1.0mph /  1.6km/h 85% 0.00in /  0mm OVC
20:00 61.0 °F /  16.1 °C 56.5 °F /  13.6 °C 30.36in /  1028hPa Calm   1.0mph /  1.6km/h 85% 0.00in /  0mm OVC
20:15 61.1 °F /  16.2 °C 56.6 °F /  13.7 °C 30.36in /  1028hPa Calm     85% 0.00in /  0mm OVC
20:30 61.1 °F /  16.2 °C 56.9 °F /  13.8 °C 30.36in /  1028hPa Calm   1.0mph /  1.6km/h 86% 0.00in /  0mm OVC
20:45 61.2 °F /  16.2 °C 56.7 °F /  13.7 °C 30.36in /  1028hPa Calm   2.0mph /  3.2km/h 85% 0.00in /  0mm OVC
21:00 61.1 °F /  16.2 °C 56.6 °F /  13.7 °C 30.36in /  1028hPa Calm   3.0mph /  4.8km/h 85% 0.00in /  0mm OVC
21:45 60.5 °F /  15.8 °C 56.3 °F /  13.5 °C 30.35in /  1027.7hPa Calm   6.0mph /  9.7km/h 86% 0.00in /  0mm BKN
22:00 60.3 °F /  15.7 °C 56.4 °F /  13.6 °C 30.35in /  1027.7hPa North 1.0mph /  1.6km/h 5.0mph /  8km/h 87% 0.00in /  0mm BKN
22:15 60.2 °F /  15.7 °C 56.6 °F /  13.7 °C 30.35in /  1027.7hPa Calm   3.0mph /  4.8km/h 88% 0.00in /  0mm BKN
22:30 60.3 °F /  15.7 °C 56.7 °F /  13.7 °C 30.35in /  1027.7hPa Calm   1.0mph /  1.6km/h 88% 0.00in /  0mm BKN
22:45 60.3 °F /  15.7 °C 56.7 °F /  13.7 °C 30.35in /  1027.7hPa Calm   3.0mph /  4.8km/h 88% 0.00in /  0mm BKN
23:00 60.4 °F /  15.8 °C 57.1 °F /  13.9 °C 30.35in /  1027.7hPa Calm   1.0mph /  1.6km/h 89% 0.00in /  0mm BKN
23:15 60.4 °F /  15.8 °C 57.1 °F /  13.9 °C 30.34in /  1027.3hPa Calm     89% 0.00in /  0mm OVC
23:30 60.3 °F /  15.7 °C 57.0 °F /  13.9 °C 30.34in /  1027.3hPa Calm     89% 0.00in /  0mm OVC
23:45 60.3 °F /  15.7 °C 57.4 °F /  14.1 °C 30.34in /  1027.3hPa Calm     90% 0.00in /  0mm OVC
TarryTown NY Weather
Compliments of Weather Underground - 1.5 mb